Time;durP1;ratioP1;P1;durP2;ratioP2;P2;SDS_P1;SDS_P2;PMS_P1;PMS_P2;Temp;Humidity;BMP_temperature;BMP_pressure;BME280_temperature;BME280_humidity;BME280_pressure;Samples;Min_cycle;Max_cycle;Signal;HPM_P1;HPM_P2
2023/03/11 00:00:12;;;;;;;4.60;1.80;;;;;;;;;;5003754;28;20103;-66
2023/03/11 00:02:39;;;;;;;7.50;1.58;;;;;;;;;;5024007;28;20049;-66
2023/03/11 00:05:05;;;;;;;2.15;1.52;;;;;;;;;;5012544;28;20033;-65
2023/03/11 00:07:31;;;;;;;7.35;1.95;;;;;;;;;;5017951;28;20034;-66
2023/03/11 00:09:57;;;;;;;6.65;2.58;;;;;;;;;;5004459;28;20045;-66
2023/03/11 00:12:23;;;;;;;7.78;2.00;;;;;;;;;;5024038;28;20087;-66
2023/03/11 00:14:49;;;;;;;8.70;2.00;;;;;;;;;;5024149;28;20049;-66
2023/03/11 00:17:15;;;;;;;5.15;2.10;;;;;;;;;;5025782;28;20112;-66
2023/03/11 00:19:41;;;;;;;4.82;2.03;;;;;;;;;;5005786;28;20086;-66
2023/03/11 00:22:06;;;;;;;7.35;2.10;;;0.90;99.90;;;;;;5012910;28;20372;-66
2023/03/11 00:24:33;;;;;;;6.80;2.22;;;;;;;;;;5028413;28;20049;-66
2023/03/11 00:26:59;;;;;;;9.73;1.80;;;;;;;;;;5010522;28;20037;-66
2023/03/11 00:29:25;;;;;;;8.10;1.92;;;;;;;;;;5004875;28;20411;-66
2023/03/11 00:31:51;;;;;;;6.60;1.80;;;;;;;;;;5008698;28;20049;-65
2023/03/11 00:34:17;;;;;;;4.07;1.88;;;;;;;;;;5028187;28;20399;-66
2023/03/11 00:36:43;;;;;;;5.82;2.22;;;;;;;;;;5028734;28;20049;-67
2023/03/11 00:39:09;;;;;;;6.90;1.92;;;;;;;;;;5020419;28;20048;-66
2023/03/11 00:41:35;;;;;;;7.05;1.70;;;;;;;;;;5006969;28;20047;-66
2023/03/11 00:44:01;;;;;;;9.55;1.75;;;;;;;;;;5024922;28;20509;-66
2023/03/11 00:46:29;;;;;;;6.57;1.58;;;;;;;;;;5010664;28;20037;-66
2023/03/11 00:48:55;;;;;;;4.78;1.77;;;;;;;;;;5006515;28;20054;-66
2023/03/11 00:51:21;;;;;;;5.43;1.50;;;;;;;;;;5020125;28;20461;-66
2023/03/11 00:53:48;;;;;;;2.17;1.10;;;;;;;;;;5027873;28;20136;-66
2023/03/11 00:56:15;;;;;;;3.72;1.10;;;;;;;;;;5010360;28;20083;-66
2023/03/11 00:58:43;;;;;;;4.18;1.38;;;0.80;99.90;;;;;;5027911;28;20049;-66
2023/03/11 01:01:10;;;;;;;6.05;3.30;;;;;;;;;;5007904;28;20050;-66
2023/03/11 01:03:36;;;;;;;4.38;1.20;;;;;;;;;;5027978;28;20057;-66
2023/03/11 01:06:02;;;;;;;5.90;1.60;;;;;;;;;;5027848;28;20037;-66
2023/03/11 01:08:30;;;;;;;3.15;1.23;;;;;;;;;;5010638;28;20553;-66
2023/03/11 01:10:56;;;;;;;4.00;1.17;;;;;;;;;;5009735;28;20119;-66
2023/03/11 01:13:22;;;;;;;6.15;1.90;;;;;;;;;;5009957;28;20049;-66
2023/03/11 01:15:48;;;;;;;4.43;1.00;;;1.00;99.90;;;;;;5009510;28;20425;-66
2023/03/11 01:18:14;;;;;;;6.00;1.50;;;;;;;;;;5003893;28;20065;-66
2023/03/11 01:20:41;;;;;;;4.53;1.23;;;;;;;;;;5022801;28;20411;-66
2023/03/11 01:23:07;;;;;;;6.45;1.63;;;;;;;;;;5010021;28;20411;-66
2023/03/11 01:25:33;;;;;;;6.57;1.40;;;;;;;;;;5009815;28;20076;-66
2023/03/11 01:27:59;;;;;;;3.80;1.60;;;;;;;;;;5003469;28;20172;-66
2023/03/11 01:30:25;;;;;;;4.63;1.60;;;;;;;;;;5002178;28;20056;-66
2023/03/11 01:32:52;;;;;;;10.50;1.23;;;;;;;;;;5028087;28;20055;-66
2023/03/11 01:35:19;;;;;;;2.63;1.20;;;;;;;;;;5027358;28;20060;-66
2023/03/11 01:37:46;;;;;;;4.40;1.40;;;;;;;;;;5023306;28;20037;-66
2023/03/11 01:40:18;;;;;;;5.13;1.50;;;;;;;;;;4999811;28;20052;-66
2023/03/11 01:42:44;;;;;;;3.20;1.15;;;;;;;;;;5027260;28;20084;-66
2023/03/11 01:45:33;;;;;;;7.03;1.30;;;;;;;;;;5027621;28;20033;-66
2023/03/11 01:47:59;;;;;;;2.50;1.00;;;;;;;;;;5014257;28;20046;-66
2023/03/11 01:50:26;;;;;;;2.30;1.23;;;;;;;;;;5026512;28;20372;-66
2023/03/11 01:52:52;;;;;;;3.53;1.30;;;;;;;;;;5027221;28;20510;-66
2023/03/11 01:55:19;;;;;;;4.10;1.17;;;;;;;;;;5026819;28;20061;-66
2023/03/11 01:57:46;;;;;;;5.00;1.30;;;;;;;;;;5008650;28;20124;-66
2023/03/11 02:00:14;;;;;;;6.45;1.17;;;;;;;;;;5027462;28;20091;-66
2023/03/11 02:03:00;;;;;;;5.00;1.23;;;;;;;;;;5008504;28;20128;-66
2023/03/11 02:05:26;;;;;;;2.63;1.20;;;;;;;;;;5024514;28;20056;-66
2023/03/11 02:07:54;;;;;;;3.95;1.10;;;;;;;;;;5006008;28;20484;-66
2023/03/11 02:10:20;;;;;;;7.47;1.48;;;;;;;;;;5021270;28;20033;-66
2023/03/11 02:12:48;;;;;;;6.82;1.23;;;0.60;99.90;;;;;;5009360;28;20045;-66
2023/03/11 02:15:14;;;;;;;5.72;1.85;;;0.60;99.90;;;;;;5027224;28;20052;-66
2023/03/11 02:17:41;;;;;;;5.18;1.50;;;;;;;;;;4999104;28;20604;-66
2023/03/11 02:20:19;;;;;;;1.95;1.25;;;;;;;;;;5000638;28;20574;-66
2023/03/11 02:22:45;;;;;;;5.15;1.30;;;;;;;;;;5006120;28;20132;-66
2023/03/11 02:25:16;;;;;;;6.18;1.20;;;;;;;;;;5008988;28;20175;-66
2023/03/11 02:27:44;;;;;;;2.00;1.20;;;0.60;99.90;;;;;;5005905;28;20048;-66
2023/03/11 02:30:12;;;;;;;3.55;1.45;;;;;;;;;;5004512;28;20399;-66
2023/03/11 02:32:38;;;;;;;2.67;1.10;;;;;;;;;;5026691;28;20072;-66
2023/03/11 02:35:05;;;;;;;2.63;1.20;;;;;;;;;;5008301;28;20049;-66
2023/03/11 02:37:31;;;;;;;2.72;1.00;;;;;;;;;;5026762;28;20133;-67
2023/03/11 02:40:17;;;;;;;3.65;1.20;;;;;;;;;;5007000;28;20054;-66
2023/03/11 02:42:43;;;;;;;1.40;1.30;;;;;;;;;;5007710;28;20045;-66
2023/03/11 02:45:12;;;;;;;2.55;1.25;;;0.00;99.90;;;;;;5008355;28;20049;-66
2023/03/11 02:47:38;;;;;;;2.95;1.30;;;;;;;;;;4989425;28;20137;-66
2023/03/11 02:50:05;;;;;;;4.20;1.27;;;;;;;;;;5008335;28;20056;-66
2023/03/11 02:52:33;;;;;;;3.97;1.67;;;;;;;;;;5025379;28;20096;-66
2023/03/11 02:54:59;;;;;;;3.25;1.30;;;;;;;;;;5008243;28;20049;-66
2023/03/11 02:57:25;;;;;;;5.10;1.13;;;;;;;;;;5006927;28;20077;-66
2023/03/11 02:59:51;;;;;;;8.23;1.48;;;;;;;;;;5020059;28;20135;-66
2023/03/11 03:02:17;;;;;;;3.95;1.33;;;;;;;;;;5006382;28;20140;-66
2023/03/11 03:04:43;;;;;;;4.38;1.27;;;;;;;;;;5025338;28;20033;-66
2023/03/11 03:07:09;;;;;;;5.22;1.80;;;;;;;;;;5022939;28;20037;-66
2023/03/11 03:09:36;;;;;;;3.63;1.17;;;;;;;;;;5007149;28;20045;-66
2023/03/11 03:12:03;;;;;;;2.20;1.30;;;;;;;;;;5007951;28;20045;-66
2023/03/11 03:14:29;;;;;;;4.20;1.27;;;;;;;;;;5001845;28;20049;-66
2023/03/11 03:16:55;;;;;;;2.85;1.00;;;;;;;;;;5025716;28;20056;-66
2023/03/11 03:19:21;;;;;;;3.85;1.20;;;;;;;;;;5021182;28;20410;-66
2023/03/11 03:21:47;;;;;;;4.30;1.23;;;;;;;;;;5023337;28;20092;-66
2023/03/11 03:24:13;;;;;;;2.97;1.10;;;;;;;;;;5000730;28;20041;-66
2023/03/11 03:26:39;;;;;;;3.47;1.35;;;;;;;;;;5022150;28;20037;-66
2023/03/11 03:29:05;;;;;;;2.17;1.02;;;;;;;;;;5002836;28;20418;-66
2023/03/11 03:31:31;;;;;;;5.65;1.30;;;;;;;;;;5004950;28;20492;-66
2023/03/11 03:33:57;;;;;;;3.47;1.10;;;;;;;;;;5024552;28;20041;-65
2023/03/11 03:36:23;;;;;;;4.00;1.45;;;;;;;;;;4988831;28;20053;-66
2023/03/11 03:38:52;;;;;;;1.33;1.00;;;;;;;;;;5004966;28;20048;-66
2023/03/11 03:41:18;;;;;;;2.53;1.55;;;;;;;;;;5006651;28;20553;-66
2023/03/11 03:43:44;;;;;;;5.00;1.52;;;;;;;;;;5003659;28;20049;-66
2023/03/11 03:46:10;;;;;;;4.63;1.40;;;;;;;;;;5007250;28;20130;-66
2023/03/11 03:48:36;;;;;;;3.78;1.30;;;;;;;;;;5024565;28;20041;-66
2023/03/11 03:51:04;;;;;;;4.53;1.10;;;-0.80;99.90;;;;;;5002813;28;20162;-66
2023/03/11 03:53:30;;;;;;;2.80;1.40;;;;;;;;;;5024794;28;20072;-66
2023/03/11 03:55:56;;;;;;;3.60;1.20;;;;;;;;;;5007469;28;20068;-66
2023/03/11 03:58:22;;;;;;;5.78;1.52;;;;;;;;;;5002745;28;20511;-68
2023/03/11 04:00:48;;;;;;;2.85;1.40;;;;;;;;;;5022616;28;20151;-66
2023/03/11 04:03:14;;;;;;;6.15;1.55;;;;;;;;;;5007126;28;20136;-66
2023/03/11 04:05:40;;;;;;;4.25;1.70;;;;;;;;;;5024387;28;20038;-66
2023/03/11 04:08:06;;;;;;;4.50;1.13;;;;;;;;;;5021080;28;20033;-66
2023/03/11 04:10:32;;;;;;;5.43;1.65;;;;;;;;;;5003248;28;20041;-66
2023/03/11 04:12:58;;;;;;;5.25;1.65;;;;;;;;;;5025831;28;20099;-66
2023/03/11 04:15:24;;;;;;;6.72;1.58;;;;;;;;;;5023297;28;20261;-66
2023/03/11 04:17:50;;;;;;;3.80;1.45;;;;;;;;;;5022318;28;20649;-66
2023/03/11 04:20:16;;;;;;;3.63;1.58;;;;;;;;;;5024298;28;20057;-66
2023/03/11 04:22:42;;;;;;;10.23;4.28;;;;;;;;;;5024429;28;20052;-66
2023/03/11 04:25:08;;;;;;;3.38;1.08;;;;;;;;;;5006448;28;20041;-65
2023/03/11 04:27:34;;;;;;;3.65;1.20;;;;;;;;;;5022412;28;20050;-66
2023/03/11 04:30:00;;;;;;;3.88;2.15;;;;;;;;;;5018619;28;20383;-66
2023/03/11 04:32:26;;;;;;;3.22;2.70;;;;;;;;;;5022853;28;20037;-65
2023/03/11 04:34:52;;;;;;;5.35;1.27;;;;;;;;;;5006777;28;20048;-66
2023/03/11 04:37:18;;;;;;;7.38;2.55;;;;;;;;;;5002916;28;20375;-66
2023/03/11 04:39:44;;;;;;;3.75;1.25;;;;;;;;;;5002712;28;20534;-66
2023/03/11 04:42:12;;;;;;;5.05;1.73;;;;;;;;;;5023553;28;20041;-66
2023/03/11 04:44:38;;;;;;;2.97;1.48;;;;;;;;;;5006547;28;20558;-66
2023/03/11 04:47:04;;;;;;;1.95;1.52;;;;;;;;;;5006667;28;20083;-66
2023/03/11 04:49:30;;;;;;;2.38;1.23;;;;;;;;;;5012956;28;20051;-66
2023/03/11 04:51:56;;;;;;;3.03;1.35;;;;;;;;;;4999468;28;20062;-66
2023/03/11 04:54:22;;;;;;;4.07;1.00;;;;;;;;;;5004212;28;20049;-66
2023/03/11 04:56:48;;;;;;;3.13;1.35;;;;;;;;;;5005026;28;20042;-67
2023/03/11 04:59:14;;;;;;;3.08;1.58;;;;;;;;;;4997601;28;20385;-66
2023/03/11 05:01:40;;;;;;;5.13;1.52;;;;;;;;;;5001645;28;20046;-66
2023/03/11 05:04:07;;;;;;;4.68;1.40;;;;;;;;;;5004160;28;20048;-66
2023/03/11 05:06:33;;;;;;;1.88;1.33;;;;;;;;;;5008579;28;20585;-66
2023/03/11 05:08:59;;;;;;;4.50;1.55;;;;;;;;;;5001440;28;20116;-66
2023/03/11 05:11:25;;;;;;;2.72;1.30;;;;;;;;;;5004073;28;20041;-66
2023/03/11 05:13:50;;;;;;;3.97;1.15;;;;;;;;;;5007180;28;20049;-66
2023/03/11 05:16:16;;;;;;;4.13;1.45;;;;;;;;;;5006414;28;20046;-66
2023/03/11 05:18:42;;;;;;;2.05;1.50;;;;;;;;;;5006028;28;20453;-66
2023/03/11 05:21:08;;;;;;;4.50;1.63;;;;;;;;;;5005665;28;20443;-67
2023/03/11 05:23:35;;;;;;;5.93;1.48;;;;;;;;;;5007716;28;20057;-66
2023/03/11 05:26:01;;;;;;;6.78;1.50;;;;;;;;;;5006247;28;20119;-67
2023/03/11 05:28:27;;;;;;;3.72;1.52;;;;;;;;;;5003801;28;20069;-66
2023/03/11 05:30:53;;;;;;;2.45;1.67;;;;;;;;;;5007212;28;20657;-66
2023/03/11 05:33:19;;;;;;;2.67;1.60;;;;;;;;;;5007752;28;20042;-66
2023/03/11 05:35:45;;;;;;;2.92;1.50;;;;;;;;;;5006215;28;20490;-66
2023/03/11 05:38:11;;;;;;;2.30;1.83;;;;;;;;;;5002038;28;20052;-66
2023/03/11 05:40:37;;;;;;;5.95;1.55;;;;;;;;;;5004216;28;20570;-66
2023/03/11 05:43:03;;;;;;;7.38;1.60;;;;;;;;;;5007953;28;20048;-66
2023/03/11 05:45:29;;;;;;;4.20;1.35;;;;;;;;;;4986292;28;20107;-66
2023/03/11 05:47:54;;;;;;;7.75;1.92;;;;;;;;;;4998572;28;20045;-66
2023/03/11 05:50:20;;;;;;;9.95;1.40;;;;;;;;;;4999026;28;20033;-66
2023/03/11 05:52:46;;;;;;;4.20;1.65;;;;;;;;;;5004126;28;20542;-66
2023/03/11 05:55:12;;;;;;;3.60;1.90;;;;;;;;;;5007311;28;20100;-66
2023/03/11 05:57:39;;;;;;;5.07;1.65;;;;;;;;;;5002894;28;20049;-66
2023/03/11 06:00:10;;;;;;;4.47;1.75;;;;;;;;;;5002453;28;20059;-66
2023/03/11 06:02:37;;;;;;;3.33;1.73;;;;;;;;;;5004561;28;20103;-66
2023/03/11 06:05:03;;;;;;;2.60;1.30;;;;;;;;;;5006313;28;20492;-65
2023/03/11 06:07:29;;;;;;;5.60;1.67;;;;;;;;;;5002361;28;20054;-66
2023/03/11 06:09:55;;;;;;;2.78;1.67;;;;;;;;;;4999919;28;20057;-66
2023/03/11 06:12:21;;;;;;;5.30;1.90;;;;;;;;;;5004996;28;20038;-66
2023/03/11 06:14:47;;;;;;;2.65;0.98;;;;;;;;;;5005805;28;20459;-66
2023/03/11 06:17:13;;;;;;;3.42;1.63;;;;;;;;;;5003700;28;20049;-66
2023/03/11 06:19:39;;;;;;;4.95;1.60;;;;;;;;;;4998562;28;20088;-66
2023/03/11 06:22:05;;;;;;;2.42;1.63;;;;;;;;;;5004820;28;20046;-66
2023/03/11 06:24:30;;;;;;;5.47;1.70;;;;;;;;;;5005984;28;20104;-66
2023/03/11 06:26:56;;;;;;;2.78;1.73;;;;;;;;;;5006254;28;20145;-66
2023/03/11 06:29:25;;;;;;;3.28;2.00;;;;;;;;;;5005777;28;20495;-66
2023/03/11 06:31:51;;;;;;;4.30;1.58;;;;;;;;;;5004581;28;20515;-66
2023/03/11 06:34:17;;;;;;;2.63;1.67;;;;;;;;;;5005191;28;20054;-66
2023/03/11 06:36:43;;;;;;;8.35;1.33;;;;;;;;;;5005165;28;20507;-66
2023/03/11 06:39:11;;;;;;;2.75;1.60;;;;;;;;;;5005734;28;20038;-66
2023/03/11 06:41:37;;;;;;;5.35;1.60;;;;;;;;;;5005341;28;20100;-66
2023/03/11 06:44:03;;;;;;;5.68;1.40;;;;;;;;;;5004444;28;20050;-66
2023/03/11 06:46:29;;;;;;;2.20;1.20;;;;;;;;;;5001091;28;20053;-66
2023/03/11 06:48:56;;;;;;;3.67;1.10;;;;;;;;;;5001947;28;20052;-66
2023/03/11 06:51:22;;;;;;;2.67;1.60;;;;;;;;;;4975125;28;20063;-66
2023/03/11 06:53:49;;;;;;;6.57;1.83;;;;;;;;;;5020075;28;20092;-66
2023/03/11 06:56:15;;;;;;;3.95;1.50;;;;;;;;;;5000483;28;20084;-66
2023/03/11 06:58:42;;;;;;;2.10;1.17;;;;;;;;;;4998268;28;20563;-66
2023/03/11 07:01:15;;;;;;;3.75;1.95;;;;;;;;;;4999309;28;20049;-66
2023/03/11 07:03:41;;;;;;;4.45;1.60;;;;;;;;;;5005996;28;20506;-66
2023/03/11 07:06:12;;;;;;;5.55;1.55;;;;;;;;;;5005202;28;20512;-66
2023/03/11 07:08:37;;;;;;;2.38;1.67;;;;;;;;;;5000890;28;20387;-66
2023/03/11 07:11:05;;;;;;;6.32;1.60;;;;;;;;;;5001638;28;20034;-66
2023/03/11 07:13:31;;;;;;;5.93;2.22;;;;;;;;;;5003779;28;20228;-66
2023/03/11 07:16:02;;;;;;;3.22;1.42;;;;;;;;;;5004071;28;20046;-67
2023/03/11 07:18:28;;;;;;;3.80;1.85;;;;;;;;;;5003801;28;20082;-67
2023/03/11 07:20:54;;;;;;;2.13;1.27;;;;;;;;;;5003457;28;20096;-67
2023/03/11 07:23:20;;;;;;;4.45;0.98;;;;;;;;;;5005098;28;20046;-70
2023/03/11 07:25:46;;;;;;;2.95;1.60;;;;;;;;;;4999712;28;20121;-67
2023/03/11 07:28:12;;;;;;;2.40;1.63;;;;;;;;;;5000769;28;20049;-68
2023/03/11 07:30:39;;;;;;;6.32;2.72;;;;;;;;;;5003804;28;20415;-68
2023/03/11 07:33:05;;;;;;;5.18;1.50;;;;;;;;;;5003843;28;20495;-68
2023/03/11 07:35:31;;;;;;;2.80;1.70;;;;;;;;;;5003100;28;20549;-68
2023/03/11 07:37:57;;;;;;;4.00;1.83;;;;;;;;;;5003082;28;20050;-66
2023/03/11 07:40:23;;;;;;;5.00;1.40;;;;;;;;;;5003633;28;20464;-64
2023/03/11 07:42:49;;;;;;;4.70;1.42;;;;;;;;;;5005204;28;20044;-66
2023/03/11 07:45:14;;;;;;;3.65;1.63;;;2.90;99.90;;;;;;5004065;28;20045;-67
2023/03/11 07:47:40;;;;;;;4.95;1.65;;;;;;;;;;5000542;28;20042;-65
2023/03/11 07:50:06;;;;;;;6.15;1.75;;;;;;;;;;4999784;28;20042;-66
2023/03/11 07:52:32;;;;;;;4.03;1.80;;;;;;;;;;5013106;28;20144;-65
2023/03/11 07:54:59;;;;;;;5.60;2.17;;;;;;;;;;5005700;28;20132;-68
2023/03/11 07:57:25;;;;;;;3.08;1.67;;;;;;;;;;5004736;28;20041;-69
2023/03/11 07:59:50;;;;;;;3.05;1.80;;;4.30;99.90;;;;;;5000697;28;20388;-67
2023/03/11 08:02:16;;;;;;;2.13;1.38;;;;;;;;;;5005612;28;20052;-68
2023/03/11 08:04:42;;;;;;;5.07;1.90;;;;;;;;;;5006544;28;20431;-67
2023/03/11 08:07:08;;;;;;;3.63;1.40;;;;;;;;;;5023233;28;20403;-68
2023/03/11 08:09:35;;;;;;;4.20;1.42;;;;;;;;;;5017361;28;20091;-68
2023/03/11 08:12:00;;;;;;;5.03;1.65;;;5.90;99.90;;;;;;5002926;28;20092;-68
2023/03/11 08:14:26;;;;;;;5.22;2.30;;;;;;;;;;5023893;28;20041;-68
2023/03/11 08:16:53;;;;;;;2.63;1.60;;;;;;;;;;5024154;28;20124;-69
2023/03/11 08:19:18;;;;;;;5.25;1.90;;;;;;;;;;5015343;28;20048;-71
2023/03/11 08:21:44;;;;;;;4.85;1.63;;;;;;;;;;5020989;28;20037;-69
2023/03/11 08:24:12;;;;;;;9.10;2.17;;;;;;;;;;5020112;28;20042;-69
2023/03/11 08:26:37;;;;;;;5.30;1.88;;;;;;;;;;5006799;28;20079;-69
2023/03/11 08:29:03;;;;;;;4.60;1.85;;;;;;;;;;5017035;28;20136;-69
2023/03/11 08:31:32;;;;;;;4.72;1.98;;;7.60;99.90;;;;;;5021257;28;20041;-69
2023/03/11 08:34:02;;;;;;;3.42;2.00;;;;;;;;;;5009443;28;20148;-68
2023/03/11 08:36:29;;;;;;;7.90;2.10;;;;;;;;;;5025337;28;20475;-69
2023/03/11 08:38:55;;;;;;;6.97;2.25;;;;;;;;;;5021737;28;20044;-66
2023/03/11 08:41:21;;;;;;;8.65;2.15;;;;;;;;;;5012389;28;20049;-67
2023/03/11 08:43:47;;;;;;;4.22;2.13;;;11.40;99.90;;;;;;5025958;28;20045;-67
2023/03/11 08:46:26;;;;;;;3.65;1.90;;;11.70;99.90;;;;;;5011966;28;20068;-68
2023/03/11 08:48:52;;;;;;;4.82;1.92;;;11.80;99.90;;;;;;5029222;28;20041;-68
2023/03/11 08:51:18;;;;;;;5.65;1.70;;;;;;;;;;5027669;28;20045;-68
2023/03/11 08:53:45;;;;;;;5.07;2.03;;;;;;;;;;5010785;28;20168;-66
2023/03/11 08:56:11;;;;;;;2.20;1.35;;;;;;;;;;5028084;28;20037;-69
2023/03/11 08:58:36;;;;;;;5.43;1.80;;;12.50;99.90;;;;;;5005331;28;20045;-68
2023/03/11 09:01:02;;;;;;;1.90;1.15;;;12.80;99.90;;;;;;5009850;28;20044;-67
2023/03/11 09:03:34;;;;;;;3.78;1.27;;;12.70;99.90;;;;;;5010206;28;20061;-69
2023/03/11 09:06:02;;;;;;;4.50;1.20;;;13.20;99.90;;;;;;5028093;28;20044;-67
2023/03/11 09:08:28;;;;;;;5.22;1.30;;;14.20;99.90;;;;;;5027537;28;20042;-67
2023/03/11 09:10:53;;;;;;;3.00;1.50;;;15.00;99.90;;;;;;5005691;28;20038;-67
2023/03/11 09:13:19;;;;;;;3.95;1.65;;;15.30;99.90;;;;;;5010596;28;20049;-68
2023/03/11 09:15:46;;;;;;;3.72;1.35;;;15.50;99.90;;;;;;5009608;28;20543;-67
2023/03/11 09:18:13;;;;;;;3.45;1.00;;;15.80;99.90;;;;;;5019746;28;20068;-68
2023/03/11 09:20:39;;;;;;;3.55;1.27;;;15.50;99.90;;;;;;5020619;28;20037;-67
2023/03/11 09:23:05;;;;;;;4.43;1.33;;;15.50;99.90;;;;;;5010142;28;20778;-68
2023/03/11 09:25:31;;;;;;;1.67;0.93;;;16.20;99.90;;;;;;5013781;28;20052;-68
2023/03/11 09:27:56;;;;;;;2.35;1.40;;;17.30;99.90;;;;;;5026181;28;20041;-67
2023/03/11 09:30:22;;;;;;;4.05;1.23;;;18.10;99.90;;;;;;5012395;28;20038;-68
2023/03/11 09:32:48;;;;;;;2.88;0.95;;;19.30;99.90;;;;;;5011637;28;20041;-68
2023/03/11 09:35:13;;;;;;;5.32;0.82;;;19.80;99.90;;;;;;5027359;28;20038;-68
2023/03/11 09:37:39;;;;;;;4.80;1.15;;;19.50;99.90;;;;;;5009969;28;20045;-68
2023/03/11 09:40:05;;;;;;;4.70;1.20;;;19.80;99.90;;;;;;5012724;28;20044;-67
2023/03/11 09:42:42;;;;;;;5.70;0.95;;;20.30;99.90;;;;;;5010063;28;20037;-68
2023/03/11 09:45:20;;;;;;;3.83;0.90;;;20.90;99.90;;;;;;5027470;28;20488;-68
2023/03/11 09:48:18;;;;;;;3.65;1.38;;;21.30;99.40;;;;;;5026875;28;20046;-68
2023/03/11 09:50:50;;;;;;;2.42;0.82;;;22.30;97.80;;;;;;5006585;28;20057;-68
2023/03/11 09:53:25;;;;;;;2.78;1.08;;;23.10;97.50;;;;;;5005866;28;20057;-68
2023/03/11 09:56:03;;;;;;;6.22;0.88;;;23.80;95.70;;;;;;5007592;28;20091;-68
2023/03/11 09:58:34;;;;;;;3.50;0.88;;;24.70;95.00;;;;;;5005863;28;20130;-68
2023/03/11 10:01:01;;;;;;;2.30;0.68;;;24.60;93.90;;;;;;5006815;28;20049;-68
2023/03/11 10:03:31;;;;;;;4.07;0.90;;;24.90;93.40;;;;;;5026021;28;20080;-68
2023/03/11 10:06:06;;;;;;;4.57;0.60;;;25.00;92.00;;;;;;5027436;28;20041;-68
2023/03/11 10:08:40;;;;;;;4.28;0.82;;;25.50;91.40;;;;;;5002952;28;20045;-68
2023/03/11 10:11:39;;;;;;;4.88;1.02;;;24.20;91.10;;;;;;5023263;28;20129;-68
2023/03/11 10:14:14;;;;;;;6.53;0.80;;;24.20;90.20;;;;;;5008110;28;20048;-69
2023/03/11 10:16:55;;;;;;;5.22;1.08;;;24.70;90.20;;;;;;5025786;28;20045;-68
2023/03/11 10:20:06;;;;;;;1.80;0.55;;;24.60;88.10;;;;;;5007949;28;20729;-69
2023/03/11 10:22:40;;;;;;;2.08;0.63;;;24.80;86.80;;;;;;5013708;28;20045;-69
2023/03/11 10:25:12;;;;;;;3.97;0.40;;;24.40;87.50;;;;;;5009450;28;20080;-69
2023/03/11 10:28:04;;;;;;;2.55;0.50;;;23.90;88.10;;;;;;5023068;28;20046;-69
2023/03/11 10:30:42;;;;;;;5.15;1.05;;;23.40;86.50;;;;;;5005494;28;20045;-69
2023/03/11 10:33:13;;;;;;;2.58;0.57;;;22.00;89.50;;;;;;5006932;28;20495;-69
2023/03/11 10:35:42;;;;;;;3.00;0.40;;;21.40;88.70;;;;;;5012427;28;20052;-69
2023/03/11 10:38:32;;;;;;;4.38;0.52;;;21.20;90.10;;;;;;4997426;28;20049;-69
2023/03/11 10:41:03;;;;;;;4.57;0.65;;;21.20;90.40;;;;;;5020798;28;20446;-69
2023/03/11 10:43:37;;;;;;;5.07;0.55;;;20.70;90.60;;;;;;5026187;28;20148;-69
2023/03/11 10:46:12;;;;;;;4.57;1.00;;;18.80;90.90;;;;;;5021873;28;20043;-69
2023/03/11 10:48:37;;;;;;;;;;;17.10;92.50;;;;;;5022609;28;20264;-69
2023/03/11 10:51:21;;;;;;;4.88;0.50;;;15.30;94.00;;;;;;5023258;28;19928;-68
2023/03/11 10:53:53;;;;;;;3.40;0.50;;;13.10;96.90;;;;;;5008073;28;20431;-68
2023/03/11 10:56:33;;;;;;;3.95;0.60;;;12.80;97.60;;;;;;5004147;28;20085;-67
2023/03/11 10:59:00;;;;;;;2.10;0.80;;;12.50;98.90;;;;;;5018818;28;20419;-67
2023/03/11 11:01:27;;;;;;;6.50;0.80;;;12.30;99.70;;;;;;5022448;28;20037;-69
2023/03/11 11:03:55;;;;;;;4.97;1.10;;;12.30;99.80;;;;;;5025404;28;20128;-69
2023/03/11 11:06:32;;;;;;;1.85;0.60;;;12.90;99.90;;;;;;5007244;28;20124;-68
2023/03/11 11:09:18;;;;;;;1.95;0.52;;;12.40;99.60;;;;;;5005647;28;20042;-68
2023/03/11 11:12:05;;;;;;;4.55;0.75;;;12.00;99.90;;;;;;5006948;28;20089;-68
2023/03/11 11:14:46;;;;;;;5.75;1.15;;;11.80;99.90;;;;;;5004683;28;20079;-68
2023/03/11 11:17:17;;;;;;;2.33;0.60;;;;;;;;;;5021934;28;20042;-67
2023/03/11 11:19:45;;;;;;;1.52;0.60;;;10.70;99.90;;;;;;5003969;28;20081;-66
2023/03/11 11:22:16;;;;;;;3.05;0.90;;;10.10;99.90;;;;;;5004940;28;20047;-67
2023/03/11 11:24:45;;;;;;;6.07;1.23;;;;;;;;;;5025362;28;20144;-67
2023/03/11 11:27:14;;;;;;;3.22;0.90;;;;;;;;;;5009019;28;20128;-66
2023/03/11 11:29:41;;;;;;;2.17;0.75;;;9.60;99.90;;;;;;5019097;28;20427;-67
2023/03/11 11:32:17;;;;;;;6.78;1.13;;;;;;;;;;5019134;28;20148;-66
2023/03/11 11:34:52;;;;;;;5.05;1.05;;;;;;;;;;5012364;28;20839;-66
2023/03/11 11:37:19;;;;;;;3.25;1.00;;;;;;;;;;5024396;28;20132;-67
2023/03/11 11:39:50;;;;;;;4.82;1.10;;;;;;;;;;5019911;28;20052;-67
2023/03/11 11:42:17;;;;;;;3.33;1.00;;;9.20;99.90;;;;;;5006728;28;20049;-67
2023/03/11 11:44:46;;;;;;;2.78;1.38;;;;;;;;;;5025352;28;20049;-66
2023/03/11 11:47:24;;;;;;;5.47;1.23;;;;;;;;;;5007737;28;20080;-66
2023/03/11 11:49:54;;;;;;;2.95;1.10;;;;;;;;;;5020675;28;20037;-66
2023/03/11 11:52:40;;;;;;;3.00;1.08;;;;;;;;;;5005762;28;20054;-69
2023/03/11 11:55:14;;;;;;;4.07;1.17;;;;;;;;;;5002348;28;20061;-68
2023/03/11 11:57:39;;;;;;;4.28;1.17;;;9.10;99.90;;;;;;5021948;28;20057;-68
2023/03/11 12:00:24;;;;;;;5.55;1.25;;;9.50;99.90;;;;;;5019785;28;20049;-68
2023/03/11 12:03:02;;;;;;;5.82;0.93;;;;;;;;;;5022438;28;20084;-68
2023/03/11 12:05:33;;;;;;;7.80;1.50;;;;;;;;;;5013040;28;20048;-68
2023/03/11 12:08:18;;;;;;;3.20;1.95;;;;;;;;;;5022966;28;20076;-68
2023/03/11 12:10:46;;;;;;;4.47;1.15;;;;;;;;;;5023295;28;20041;-68
2023/03/11 12:13:21;;;;;;;10.43;1.50;;;9.50;99.90;;;;;;5012090;28;20132;-68
2023/03/11 12:15:53;;;;;;;5.13;0.90;;;;;;;;;;5012530;28;20056;-68
2023/03/11 12:18:23;;;;;;;3.47;0.98;;;;;;;;;;5014471;28;20483;-68
2023/03/11 12:20:57;;;;;;;4.60;1.02;;;9.10;99.90;;;;;;5031042;28;20048;-68
2023/03/11 12:23:42;;;;;;;2.53;1.00;;;;;;;;;;5028991;28;20046;-68
2023/03/11 12:26:22;;;;;;;2.27;1.00;;;;;;;;;;5029403;28;20132;-68
2023/03/11 12:29:14;;;;;;;4.75;1.10;;;;;;;;;;5024985;28;20264;-68
2023/03/11 12:31:40;;;;;;;4.05;0.60;;;9.00;99.90;;;;;;5024003;28;20149;-68
2023/03/11 12:34:09;;;;;;;3.65;1.30;;;;;;;;;;5012285;28;20140;-68
2023/03/11 12:36:38;;;;;;;3.08;1.15;;;;;;;;;;5013462;28;20042;-68
2023/03/11 12:39:05;;;;;;;2.15;0.90;;;;;;;;;;5029878;28;20037;-68
2023/03/11 12:41:37;;;;;;;7.07;1.17;;;8.70;99.90;;;;;;5028838;28;20044;-68
2023/03/11 12:44:28;;;;;;;3.63;1.05;;;8.80;99.90;;;;;;5022252;28;20049;-68
2023/03/11 12:46:57;;;;;;;4.95;1.08;;;;;;;;;;5013304;28;20045;-68
2023/03/11 12:49:23;;;;;;;3.78;1.48;;;;;;;;;;5011947;28;20856;-68
2023/03/11 12:52:03;;;;;;;1.88;0.90;;;;;;;;;;5028796;28;20152;-66
2023/03/11 12:54:34;;;;;;;5.45;1.30;;;;;;;;;;5011144;28;20061;-66
2023/03/11 12:57:03;;;;;;;3.95;0.90;;;;;;;;;;5011069;28;20042;-67
2023/03/11 12:59:40;;;;;;;4.70;1.23;;;;;;;;;;5008730;28;20049;-65
2023/03/11 13:02:09;;;;;;;3.53;1.00;;;;;;;;;;5028454;28;20045;-65
2023/03/11 13:04:54;;;;;;;7.10;1.02;;;;;;;;;;5028812;28;20091;-65
2023/03/11 13:07:24;;;;;;;2.87;0.90;;;;;;;;;;5028702;28;20040;-65
2023/03/11 13:10:10;;;;;;;2.25;0.70;;;;;;;;;;5008668;28;20704;-65
2023/03/11 13:12:40;;;;;;;3.95;1.05;;;9.10;99.90;;;;;;5010353;28;20406;-65
2023/03/11 13:15:29;;;;;;;3.75;1.00;;;;;;;;;;5015958;28;20041;-67
2023/03/11 13:18:04;;;;;;;5.15;0.90;;;;;;;;;;5004149;28;20057;-66
2023/03/11 13:20:42;;;;;;;4.47;0.93;;;;;;;;;;5025220;28;20514;-66
2023/03/11 13:23:07;;;;;;;6.03;1.27;;;;;;;;;;5010904;28;20049;-66
2023/03/11 13:25:38;;;;;;;3.80;1.20;;;;;;;;;;5010557;28;20041;-67
2023/03/11 13:28:23;;;;;;;5.60;1.48;;;;;;;;;;4998115;28;20041;-67
2023/03/11 13:31:08;;;;;;;5.65;1.45;;;;;;;;;;5026401;28;20411;-67
2023/03/11 13:33:43;;;;;;;3.30;1.55;;;;;;;;;;5011586;28;20084;-67
2023/03/11 13:36:13;;;;;;;5.53;1.08;;;;;;;;;;5014529;28;20603;-67
2023/03/11 13:38:45;;;;;;;2.70;1.17;;;;;;;;;;5012026;28;20052;-67
2023/03/11 13:41:17;;;;;;;1.65;0.80;;;;;;;;;;5029008;28;20395;-67
2023/03/11 13:43:44;;;;;;;3.40;0.90;;;;;;;;;;5029288;28;20144;-67
2023/03/11 13:46:26;;;;;;;2.03;0.90;;;;;;;;;;5029048;28;20554;-67
2023/03/11 13:48:56;;;;;;;4.18;1.10;;;;;;;;;;5028883;28;20044;-66
2023/03/11 13:51:25;;;;;;;5.88;1.10;;;;;;;;;;5026917;28;20097;-67
2023/03/11 13:53:51;;;;;;;2.80;0.98;;;;;;;;;;5013774;28;20057;-67
2023/03/11 13:56:20;;;;;;;3.53;0.80;;;;;;;;;;5025519;28;20053;-67
2023/03/11 13:58:46;;;;;;;3.47;1.08;;;;;;;;;;5009606;28;20069;-67
2023/03/11 14:01:15;;;;;;;3.08;0.90;;;;;;;;;;5027825;28;20072;-67
2023/03/11 14:03:41;;;;;;;5.18;1.20;;;;;;;;;;5013450;28;20054;-67
2023/03/11 14:06:10;;;;;;;3.00;1.23;;;;;;;;;;5027790;28;20443;-67
2023/03/11 14:08:37;;;;;;;3.50;1.05;;;8.50;99.90;;;;;;5008097;28;20041;-68
2023/03/11 14:11:15;;;;;;;7.43;1.30;;;;;;;;;;5007720;28;20041;-67
2023/03/11 14:13:45;;;;;;;7.47;1.40;;;;;;;;;;5027143;28;20049;-67
2023/03/11 14:16:27;;;;;;;7.13;1.50;;;8.30;99.90;;;;;;5025312;28;20051;-67
2023/03/11 14:19:13;;;;;;;5.28;1.48;;;;;;;;;;5010630;28;20037;-67
2023/03/11 14:21:43;;;;;;;5.95;1.60;;;;;;;;;;5018931;28;20049;-67
2023/03/11 14:24:16;;;;;;;2.33;1.17;;;;;;;;;;5026765;28;20044;-67